sensor_id;sensor_type;location;lat;lon;timestamp;P1;durP1;ratioP1;P2;durP2;ratioP2
16577;SDS011;8401;52.528;13.340;2023-05-07T00:00:26;14.17;;;10.30;;
16577;SDS011;8401;52.528;13.340;2023-05-07T00:02:52;14.40;;;10.40;;
16577;SDS011;8401;52.528;13.340;2023-05-07T00:05:17;13.50;;;9.97;;
16577;SDS011;8401;52.528;13.340;2023-05-07T00:07:43;11.50;;;9.90;;
16577;SDS011;8401;52.528;13.340;2023-05-07T00:10:09;12.00;;;9.80;;
16577;SDS011;8401;52.528;13.340;2023-05-07T00:12:37;11.23;;;9.70;;
16577;SDS011;8401;52.528;13.340;2023-05-07T00:15:03;12.67;;;9.47;;
16577;SDS011;8401;52.528;13.340;2023-05-07T00:17:29;12.13;;;9.30;;
16577;SDS011;8401;52.528;13.340;2023-05-07T00:19:56;12.63;;;9.23;;
16577;SDS011;8401;52.528;13.340;2023-05-07T00:22:21;13.97;;;10.00;;
16577;SDS011;8401;52.528;13.340;2023-05-07T00:24:47;11.40;;;9.03;;
16577;SDS011;8401;52.528;13.340;2023-05-07T00:27:12;11.53;;;9.60;;
16577;SDS011;8401;52.528;13.340;2023-05-07T00:29:38;11.53;;;8.40;;
16577;SDS011;8401;52.528;13.340;2023-05-07T00:32:04;12.13;;;8.90;;
16577;SDS011;8401;52.528;13.340;2023-05-07T00:34:30;11.20;;;8.60;;
16577;SDS011;8401;52.528;13.340;2023-05-07T00:36:55;9.67;;;7.97;;
16577;SDS011;8401;52.528;13.340;2023-05-07T00:39:21;10.90;;;8.40;;
16577;SDS011;8401;52.528;13.340;2023-05-07T00:41:47;11.87;;;8.83;;
16577;SDS011;8401;52.528;13.340;2023-05-07T00:44:13;9.67;;;8.30;;
16577;SDS011;8401;52.528;13.340;2023-05-07T00:46:39;12.90;;;8.53;;
16577;SDS011;8401;52.528;13.340;2023-05-07T00:49:05;9.53;;;8.53;;
16577;SDS011;8401;52.528;13.340;2023-05-07T00:51:31;9.80;;;8.23;;
16577;SDS011;8401;52.528;13.340;2023-05-07T00:53:58;9.73;;;7.90;;
16577;SDS011;8401;52.528;13.340;2023-05-07T00:56:25;9.73;;;7.70;;
16577;SDS011;8401;52.528;13.340;2023-05-07T00:58:51;11.53;;;8.33;;
16577;SDS011;8401;52.528;13.340;2023-05-07T01:01:17;10.33;;;8.13;;
16577;SDS011;8401;52.528;13.340;2023-05-07T01:03:43;10.07;;;8.87;;
16577;SDS011;8401;52.528;13.340;2023-05-07T01:06:08;10.57;;;8.77;;
16577;SDS011;8401;52.528;13.340;2023-05-07T01:08:37;11.80;;;8.53;;
16577;SDS011;8401;52.528;13.340;2023-05-07T01:11:07;10.60;;;8.83;;
16577;SDS011;8401;52.528;13.340;2023-05-07T01:13:33;10.17;;;8.43;;
16577;SDS011;8401;52.528;13.340;2023-05-07T01:16:00;9.80;;;8.40;;
16577;SDS011;8401;52.528;13.340;2023-05-07T01:18:26;12.07;;;8.83;;
16577;SDS011;8401;52.528;13.340;2023-05-07T01:20:52;9.93;;;8.37;;
16577;SDS011;8401;52.528;13.340;2023-05-07T01:23:18;10.60;;;8.47;;
16577;SDS011;8401;52.528;13.340;2023-05-07T01:25:50;10.03;;;9.00;;
16577;SDS011;8401;52.528;13.340;2023-05-07T01:28:17;11.47;;;8.37;;
16577;SDS011;8401;52.528;13.340;2023-05-07T01:30:44;10.00;;;8.73;;
16577;SDS011;8401;52.528;13.340;2023-05-07T01:33:15;10.20;;;7.87;;
16577;SDS011;8401;52.528;13.340;2023-05-07T01:35:45;10.17;;;8.37;;
16577;SDS011;8401;52.528;13.340;2023-05-07T01:38:14;12.27;;;8.97;;
16577;SDS011;8401;52.528;13.340;2023-05-07T01:40:39;10.30;;;8.53;;
16577;SDS011;8401;52.528;13.340;2023-05-07T01:43:06;11.17;;;8.33;;
16577;SDS011;8401;52.528;13.340;2023-05-07T01:45:31;10.73;;;7.97;;
16577;SDS011;8401;52.528;13.340;2023-05-07T01:47:58;10.93;;;8.33;;
16577;SDS011;8401;52.528;13.340;2023-05-07T01:50:25;13.00;;;8.80;;
16577;SDS011;8401;52.528;13.340;2023-05-07T01:52:50;10.37;;;8.37;;
16577;SDS011;8401;52.528;13.340;2023-05-07T01:55:16;9.37;;;7.60;;
16577;SDS011;8401;52.528;13.340;2023-05-07T01:57:42;9.57;;;7.80;;
16577;SDS011;8401;52.528;13.340;2023-05-07T02:00:08;9.30;;;7.63;;
16577;SDS011;8401;52.528;13.340;2023-05-07T02:02:34;10.63;;;8.67;;
16577;SDS011;8401;52.528;13.340;2023-05-07T02:05:00;9.97;;;7.93;;
16577;SDS011;8401;52.528;13.340;2023-05-07T02:07:26;9.47;;;8.10;;
16577;SDS011;8401;52.528;13.340;2023-05-07T02:09:53;11.47;;;8.47;;
16577;SDS011;8401;52.528;13.340;2023-05-07T02:12:20;10.10;;;8.17;;
16577;SDS011;8401;52.528;13.340;2023-05-07T02:14:46;11.20;;;8.43;;
16577;SDS011;8401;52.528;13.340;2023-05-07T02:17:12;10.60;;;8.13;;
16577;SDS011;8401;52.528;13.340;2023-05-07T02:19:37;12.13;;;8.57;;
16577;SDS011;8401;52.528;13.340;2023-05-07T02:22:03;11.27;;;8.87;;
16577;SDS011;8401;52.528;13.340;2023-05-07T02:24:28;11.20;;;9.10;;
16577;SDS011;8401;52.528;13.340;2023-05-07T02:26:54;11.53;;;9.23;;
16577;SDS011;8401;52.528;13.340;2023-05-07T02:29:20;9.70;;;8.27;;
16577;SDS011;8401;52.528;13.340;2023-05-07T02:31:46;12.03;;;9.17;;
16577;SDS011;8401;52.528;13.340;2023-05-07T02:34:15;10.70;;;9.30;;
16577;SDS011;8401;52.528;13.340;2023-05-07T02:36:41;12.93;;;9.17;;
16577;SDS011;8401;52.528;13.340;2023-05-07T02:39:07;12.03;;;8.80;;
16577;SDS011;8401;52.528;13.340;2023-05-07T02:41:33;11.27;;;8.30;;
16577;SDS011;8401;52.528;13.340;2023-05-07T02:43:58;10.60;;;7.80;;
16577;SDS011;8401;52.528;13.340;2023-05-07T02:46:24;10.47;;;8.50;;
16577;SDS011;8401;52.528;13.340;2023-05-07T02:48:50;10.27;;;8.40;;
16577;SDS011;8401;52.528;13.340;2023-05-07T02:51:17;11.83;;;8.30;;
16577;SDS011;8401;52.528;13.340;2023-05-07T02:53:44;12.23;;;8.50;;
16577;SDS011;8401;52.528;13.340;2023-05-07T02:56:11;10.13;;;8.60;;
16577;SDS011;8401;52.528;13.340;2023-05-07T02:58:37;9.53;;;8.37;;
16577;SDS011;8401;52.528;13.340;2023-05-07T03:01:04;9.83;;;8.10;;
16577;SDS011;8401;52.528;13.340;2023-05-07T03:03:30;11.63;;;8.47;;
16577;SDS011;8401;52.528;13.340;2023-05-07T03:05:56;10.53;;;8.30;;
16577;SDS011;8401;52.528;13.340;2023-05-07T03:08:22;11.47;;;8.40;;
16577;SDS011;8401;52.528;13.340;2023-05-07T03:10:48;11.23;;;7.93;;
16577;SDS011;8401;52.528;13.340;2023-05-07T03:13:13;9.57;;;7.23;;
16577;SDS011;8401;52.528;13.340;2023-05-07T03:15:39;11.77;;;8.13;;
16577;SDS011;8401;52.528;13.340;2023-05-07T03:18:05;11.90;;;8.07;;
16577;SDS011;8401;52.528;13.340;2023-05-07T03:20:31;11.13;;;7.53;;
16577;SDS011;8401;52.528;13.340;2023-05-07T03:22:57;10.13;;;8.13;;
16577;SDS011;8401;52.528;13.340;2023-05-07T03:25:22;9.63;;;7.90;;
16577;SDS011;8401;52.528;13.340;2023-05-07T03:27:48;12.90;;;7.50;;
16577;SDS011;8401;52.528;13.340;2023-05-07T03:30:14;10.83;;;7.57;;
16577;SDS011;8401;52.528;13.340;2023-05-07T03:32:40;9.70;;;7.60;;
16577;SDS011;8401;52.528;13.340;2023-05-07T03:35:06;11.17;;;6.83;;
16577;SDS011;8401;52.528;13.340;2023-05-07T03:37:32;11.40;;;7.47;;
16577;SDS011;8401;52.528;13.340;2023-05-07T03:39:57;9.87;;;7.57;;
16577;SDS011;8401;52.528;13.340;2023-05-07T03:42:23;9.57;;;7.53;;
16577;SDS011;8401;52.528;13.340;2023-05-07T03:44:49;9.20;;;8.30;;
16577;SDS011;8401;52.528;13.340;2023-05-07T03:47:15;8.23;;;6.93;;
16577;SDS011;8401;52.528;13.340;2023-05-07T03:49:40;9.47;;;7.57;;
16577;SDS011;8401;52.528;13.340;2023-05-07T03:52:06;9.17;;;7.80;;
16577;SDS011;8401;52.528;13.340;2023-05-07T03:54:32;8.87;;;7.43;;
16577;SDS011;8401;52.528;13.340;2023-05-07T03:56:57;9.70;;;8.40;;
16577;SDS011;8401;52.528;13.340;2023-05-07T03:59:23;9.93;;;7.80;;
16577;SDS011;8401;52.528;13.340;2023-05-07T04:01:49;9.80;;;7.57;;
16577;SDS011;8401;52.528;13.340;2023-05-07T04:04:15;8.93;;;7.47;;
16577;SDS011;8401;52.528;13.340;2023-05-07T04:06:41;11.53;;;8.37;;
16577;SDS011;8401;52.528;13.340;2023-05-07T04:09:06;9.83;;;7.67;;
16577;SDS011;8401;52.528;13.340;2023-05-07T04:11:32;9.50;;;7.63;;
16577;SDS011;8401;52.528;13.340;2023-05-07T04:13:58;8.10;;;6.97;;
16577;SDS011;8401;52.528;13.340;2023-05-07T04:16:24;8.10;;;7.03;;
16577;SDS011;8401;52.528;13.340;2023-05-07T04:18:50;12.33;;;7.20;;
16577;SDS011;8401;52.528;13.340;2023-05-07T04:21:19;10.37;;;8.00;;
16577;SDS011;8401;52.528;13.340;2023-05-07T04:23:46;8.67;;;7.67;;
16577;SDS011;8401;52.528;13.340;2023-05-07T04:26:12;8.90;;;7.20;;
16577;SDS011;8401;52.528;13.340;2023-05-07T04:28:38;9.17;;;6.80;;
16577;SDS011;8401;52.528;13.340;2023-05-07T04:31:04;9.97;;;7.47;;
16577;SDS011;8401;52.528;13.340;2023-05-07T04:33:30;11.77;;;7.10;;
16577;SDS011;8401;52.528;13.340;2023-05-07T04:35:56;10.47;;;7.47;;
16577;SDS011;8401;52.528;13.340;2023-05-07T04:38:22;7.67;;;6.60;;
16577;SDS011;8401;52.528;13.340;2023-05-07T04:40:48;9.93;;;7.33;;
16577;SDS011;8401;52.528;13.340;2023-05-07T04:43:14;9.80;;;7.43;;
16577;SDS011;8401;52.528;13.340;2023-05-07T04:45:41;9.47;;;7.73;;
16577;SDS011;8401;52.528;13.340;2023-05-07T04:48:07;9.40;;;7.00;;
16577;SDS011;8401;52.528;13.340;2023-05-07T04:50:34;7.90;;;6.93;;
16577;SDS011;8401;52.528;13.340;2023-05-07T04:53:00;9.43;;;6.70;;
16577;SDS011;8401;52.528;13.340;2023-05-07T04:55:26;8.57;;;6.10;;
16577;SDS011;8401;52.528;13.340;2023-05-07T04:57:52;7.17;;;6.17;;
16577;SDS011;8401;52.528;13.340;2023-05-07T05:00:18;8.53;;;6.53;;
16577;SDS011;8401;52.528;13.340;2023-05-07T05:02:44;6.80;;;5.90;;
16577;SDS011;8401;52.528;13.340;2023-05-07T05:05:10;7.40;;;5.83;;
16577;SDS011;8401;52.528;13.340;2023-05-07T05:07:36;7.20;;;6.27;;
16577;SDS011;8401;52.528;13.340;2023-05-07T05:10:02;7.70;;;6.27;;
16577;SDS011;8401;52.528;13.340;2023-05-07T05:12:30;7.53;;;5.60;;
16577;SDS011;8401;52.528;13.340;2023-05-07T05:14:56;7.90;;;6.20;;
16577;SDS011;8401;52.528;13.340;2023-05-07T05:17:22;7.83;;;5.80;;
16577;SDS011;8401;52.528;13.340;2023-05-07T05:19:48;6.87;;;6.00;;
16577;SDS011;8401;52.528;13.340;2023-05-07T05:22:13;8.27;;;7.00;;
16577;SDS011;8401;52.528;13.340;2023-05-07T05:24:40;9.13;;;6.10;;
16577;SDS011;8401;52.528;13.340;2023-05-07T05:27:05;8.07;;;5.87;;
16577;SDS011;8401;52.528;13.340;2023-05-07T05:29:31;7.57;;;5.67;;
16577;SDS011;8401;52.528;13.340;2023-05-07T05:31:57;7.47;;;5.27;;
16577;SDS011;8401;52.528;13.340;2023-05-07T05:34:22;9.27;;;5.60;;
16577;SDS011;8401;52.528;13.340;2023-05-07T05:36:48;6.10;;;5.00;;
16577;SDS011;8401;52.528;13.340;2023-05-07T05:39:14;8.67;;;5.60;;
16577;SDS011;8401;52.528;13.340;2023-05-07T05:41:39;6.13;;;5.40;;
16577;SDS011;8401;52.528;13.340;2023-05-07T05:44:05;6.27;;;5.10;;
16577;SDS011;8401;52.528;13.340;2023-05-07T05:46:31;6.07;;;5.27;;
16577;SDS011;8401;52.528;13.340;2023-05-07T05:48:57;9.17;;;5.87;;
16577;SDS011;8401;52.528;13.340;2023-05-07T05:51:23;6.60;;;5.70;;
16577;SDS011;8401;52.528;13.340;2023-05-07T05:53:48;7.00;;;5.33;;
16577;SDS011;8401;52.528;13.340;2023-05-07T05:56:15;9.03;;;6.30;;
16577;SDS011;8401;52.528;13.340;2023-05-07T05:58:41;7.50;;;5.73;;
16577;SDS011;8401;52.528;13.340;2023-05-07T06:01:06;6.40;;;5.67;;
16577;SDS011;8401;52.528;13.340;2023-05-07T06:03:32;6.93;;;6.00;;
16577;SDS011;8401;52.528;13.340;2023-05-07T06:05:58;6.73;;;5.43;;
16577;SDS011;8401;52.528;13.340;2023-05-07T06:08:25;6.67;;;5.63;;
16577;SDS011;8401;52.528;13.340;2023-05-07T06:10:55;7.20;;;5.63;;
16577;SDS011;8401;52.528;13.340;2023-05-07T06:13:21;8.40;;;6.03;;
16577;SDS011;8401;52.528;13.340;2023-05-07T06:15:46;8.47;;;6.07;;
16577;SDS011;8401;52.528;13.340;2023-05-07T06:18:12;7.60;;;6.20;;
16577;SDS011;8401;52.528;13.340;2023-05-07T06:20:38;7.27;;;6.10;;
16577;SDS011;8401;52.528;13.340;2023-05-07T06:23:03;10.40;;;6.47;;
16577;SDS011;8401;52.528;13.340;2023-05-07T06:25:29;7.30;;;5.97;;
16577;SDS011;8401;52.528;13.340;2023-05-07T06:27:54;6.10;;;5.30;;
16577;SDS011;8401;52.528;13.340;2023-05-07T06:30:20;7.70;;;5.80;;
16577;SDS011;8401;52.528;13.340;2023-05-07T06:32:46;7.20;;;5.57;;
16577;SDS011;8401;52.528;13.340;2023-05-07T06:35:11;8.50;;;6.30;;
16577;SDS011;8401;52.528;13.340;2023-05-07T06:37:38;9.50;;;5.80;;
16577;SDS011;8401;52.528;13.340;2023-05-07T06:40:05;9.13;;;6.07;;
16577;SDS011;8401;52.528;13.340;2023-05-07T06:42:32;8.50;;;5.80;;
16577;SDS011;8401;52.528;13.340;2023-05-07T06:44:57;8.23;;;5.87;;
16577;SDS011;8401;52.528;13.340;2023-05-07T06:47:23;6.77;;;5.80;;
16577;SDS011;8401;52.528;13.340;2023-05-07T06:49:48;7.60;;;5.60;;
16577;SDS011;8401;52.528;13.340;2023-05-07T06:52:14;7.73;;;5.70;;
16577;SDS011;8401;52.528;13.340;2023-05-07T06:54:40;6.33;;;5.37;;
16577;SDS011;8401;52.528;13.340;2023-05-07T06:57:09;7.50;;;6.17;;
16577;SDS011;8401;52.528;13.340;2023-05-07T06:59:35;5.93;;;5.13;;
16577;SDS011;8401;52.528;13.340;2023-05-07T07:02:00;6.10;;;5.10;;
16577;SDS011;8401;52.528;13.340;2023-05-07T07:04:26;6.73;;;5.67;;
16577;SDS011;8401;52.528;13.340;2023-05-07T07:06:52;8.83;;;6.27;;
16577;SDS011;8401;52.528;13.340;2023-05-07T07:09:19;6.23;;;5.50;;
16577;SDS011;8401;52.528;13.340;2023-05-07T07:11:44;7.37;;;5.23;;
16577;SDS011;8401;52.528;13.340;2023-05-07T07:14:10;6.40;;;5.75;;
16577;SDS011;8401;52.528;13.340;2023-05-07T07:16:36;6.97;;;5.10;;
16577;SDS011;8401;52.528;13.340;2023-05-07T07:19:01;5.17;;;4.60;;
16577;SDS011;8401;52.528;13.340;2023-05-07T07:21:27;7.87;;;5.03;;
16577;SDS011;8401;52.528;13.340;2023-05-07T07:23:52;7.27;;;6.20;;
16577;SDS011;8401;52.528;13.340;2023-05-07T07:26:18;7.20;;;5.07;;
16577;SDS011;8401;52.528;13.340;2023-05-07T07:28:47;7.97;;;5.47;;
16577;SDS011;8401;52.528;13.340;2023-05-07T07:31:12;8.43;;;6.40;;
16577;SDS011;8401;52.528;13.340;2023-05-07T07:33:38;6.30;;;5.40;;
16577;SDS011;8401;52.528;13.340;2023-05-07T07:36:05;5.33;;;3.93;;
16577;SDS011;8401;52.528;13.340;2023-05-07T07:38:31;5.53;;;3.73;;
16577;SDS011;8401;52.528;13.340;2023-05-07T07:40:57;5.20;;;4.07;;
16577;SDS011;8401;52.528;13.340;2023-05-07T07:43:22;4.47;;;3.63;;
16577;SDS011;8401;52.528;13.340;2023-05-07T07:45:48;4.87;;;4.00;;
16577;SDS011;8401;52.528;13.340;2023-05-07T07:48:13;5.40;;;3.97;;
16577;SDS011;8401;52.528;13.340;2023-05-07T07:50:39;4.70;;;4.20;;
16577;SDS011;8401;52.528;13.340;2023-05-07T07:53:05;4.43;;;3.60;;
16577;SDS011;8401;52.528;13.340;2023-05-07T07:55:30;6.97;;;4.00;;
16577;SDS011;8401;52.528;13.340;2023-05-07T07:57:57;4.33;;;3.43;;
16577;SDS011;8401;52.528;13.340;2023-05-07T08:00:22;3.73;;;3.10;;
16577;SDS011;8401;52.528;13.340;2023-05-07T08:02:48;4.70;;;3.90;;
16577;SDS011;8401;52.528;13.340;2023-05-07T08:05:14;5.07;;;4.20;;
16577;SDS011;8401;52.528;13.340;2023-05-07T08:07:40;5.80;;;3.67;;
16577;SDS011;8401;52.528;13.340;2023-05-07T08:10:06;3.67;;;3.27;;
16577;SDS011;8401;52.528;13.340;2023-05-07T08:12:31;3.63;;;3.10;;
16577;SDS011;8401;52.528;13.340;2023-05-07T08:14:57;4.17;;;3.50;;
16577;SDS011;8401;52.528;13.340;2023-05-07T08:17:23;3.87;;;2.87;;
16577;SDS011;8401;52.528;13.340;2023-05-07T08:19:49;3.40;;;2.83;;
16577;SDS011;8401;52.528;13.340;2023-05-07T08:22:15;2.80;;;2.50;;
16577;SDS011;8401;52.528;13.340;2023-05-07T08:24:42;2.97;;;2.70;;
16577;SDS011;8401;52.528;13.340;2023-05-07T08:27:08;4.00;;;2.97;;
16577;SDS011;8401;52.528;13.340;2023-05-07T08:29:34;2.70;;;2.40;;
16577;SDS011;8401;52.528;13.340;2023-05-07T08:31:59;2.80;;;2.60;;
16577;SDS011;8401;52.528;13.340;2023-05-07T08:34:25;3.47;;;2.57;;
16577;SDS011;8401;52.528;13.340;2023-05-07T08:36:50;3.33;;;2.42;;
16577;SDS011;8401;52.528;13.340;2023-05-07T08:39:16;3.63;;;2.65;;
16577;SDS011;8401;52.528;13.340;2023-05-07T08:41:45;3.28;;;2.67;;
16577;SDS011;8401;52.528;13.340;2023-05-07T08:44:12;4.15;;;2.85;;
16577;SDS011;8401;52.528;13.340;2023-05-07T08:46:39;4.18;;;3.00;;
16577;SDS011;8401;52.528;13.340;2023-05-07T08:49:06;2.90;;;2.60;;
16577;SDS011;8401;52.528;13.340;2023-05-07T08:51:33;5.20;;;2.55;;
16577;SDS011;8401;52.528;13.340;2023-05-07T08:53:58;3.58;;;2.35;;
16577;SDS011;8401;52.528;13.340;2023-05-07T08:56:26;6.90;;;2.60;;
16577;SDS011;8401;52.528;13.340;2023-05-07T08:58:52;3.50;;;2.92;;
16577;SDS011;8401;52.528;13.340;2023-05-07T09:01:21;4.57;;;3.03;;
16577;SDS011;8401;52.528;13.340;2023-05-07T09:03:47;3.37;;;2.87;;
16577;SDS011;8401;52.528;13.340;2023-05-07T09:06:13;3.30;;;2.92;;
16577;SDS011;8401;52.528;13.340;2023-05-07T09:08:38;2.95;;;2.47;;
16577;SDS011;8401;52.528;13.340;2023-05-07T09:11:04;3.22;;;2.47;;
16577;SDS011;8401;52.528;13.340;2023-05-07T09:13:30;2.80;;;2.50;;
16577;SDS011;8401;52.528;13.340;2023-05-07T09:15:55;2.80;;;2.50;;
16577;SDS011;8401;52.528;13.340;2023-05-07T09:18:23;3.38;;;2.45;;
16577;SDS011;8401;52.528;13.340;2023-05-07T09:20:50;2.58;;;2.22;;
16577;SDS011;8401;52.528;13.340;2023-05-07T09:23:15;3.10;;;2.45;;
16577;SDS011;8401;52.528;13.340;2023-05-07T09:25:41;2.65;;;2.45;;
16577;SDS011;8401;52.528;13.340;2023-05-07T09:28:07;2.60;;;2.40;;
16577;SDS011;8401;52.528;13.340;2023-05-07T09:30:35;3.65;;;2.95;;
16577;SDS011;8401;52.528;13.340;2023-05-07T09:33:02;4.35;;;2.72;;
16577;SDS011;8401;52.528;13.340;2023-05-07T09:35:29;5.05;;;3.85;;
16577;SDS011;8401;52.528;13.340;2023-05-07T09:37:55;3.25;;;2.92;;
16577;SDS011;8401;52.528;13.340;2023-05-07T09:40:22;3.13;;;2.83;;
16577;SDS011;8401;52.528;13.340;2023-05-07T09:42:50;3.17;;;2.85;;
16577;SDS011;8401;52.528;13.340;2023-05-07T09:45:16;3.83;;;2.72;;
16577;SDS011;8401;52.528;13.340;2023-05-07T09:47:50;2.53;;;2.20;;
16577;SDS011;8401;52.528;13.340;2023-05-07T09:50:20;3.30;;;3.00;;
16577;SDS011;8401;52.528;13.340;2023-05-07T09:53:07;4.65;;;2.65;;
16577;SDS011;8401;52.528;13.340;2023-05-07T09:55:35;2.60;;;2.33;;
16577;SDS011;8401;52.528;13.340;2023-05-07T09:58:02;4.57;;;3.28;;
16577;SDS011;8401;52.528;13.340;2023-05-07T10:00:31;3.22;;;2.55;;
16577;SDS011;8401;52.528;13.340;2023-05-07T10:02:57;2.33;;;2.00;;
16577;SDS011;8401;52.528;13.340;2023-05-07T10:05:25;4.07;;;2.30;;
16577;SDS011;8401;52.528;13.340;2023-05-07T10:07:52;3.20;;;2.42;;
16577;SDS011;8401;52.528;13.340;2023-05-07T10:10:19;4.78;;;2.90;;
16577;SDS011;8401;52.528;13.340;2023-05-07T10:12:45;3.58;;;2.20;;
16577;SDS011;8401;52.528;13.340;2023-05-07T10:15:11;3.08;;;2.58;;
16577;SDS011;8401;52.528;13.340;2023-05-07T10:17:39;3.63;;;2.78;;
16577;SDS011;8401;52.528;13.340;2023-05-07T10:20:06;5.57;;;3.90;;
16577;SDS011;8401;52.528;13.340;2023-05-07T10:22:37;3.75;;;2.83;;
16577;SDS011;8401;52.528;13.340;2023-05-07T10:25:06;3.58;;;2.78;;
16577;SDS011;8401;52.528;13.340;2023-05-07T10:27:39;4.15;;;2.20;;
16577;SDS011;8401;52.528;13.340;2023-05-07T10:33:01;2.08;;;1.83;;
16577;SDS011;8401;52.528;13.340;2023-05-07T10:35:32;2.53;;;1.80;;
16577;SDS011;8401;52.528;13.340;2023-05-07T10:38:04;4.07;;;2.92;;
16577;SDS011;8401;52.528;13.340;2023-05-07T10:40:30;2.17;;;1.77;;
16577;SDS011;8401;52.528;13.340;2023-05-07T10:42:57;7.07;;;3.20;;
16577;SDS011;8401;52.528;13.340;2023-05-07T10:45:28;5.53;;;2.90;;
16577;SDS011;8401;52.528;13.340;2023-05-07T10:48:06;5.82;;;2.50;;
16577;SDS011;8401;52.528;13.340;2023-05-07T10:50:33;4.85;;;2.40;;
16577;SDS011;8401;52.528;13.340;2023-05-07T10:55:49;9.27;;;2.72;;
16577;SDS011;8401;52.528;13.340;2023-05-07T11:00:48;3.13;;;1.93;;
16577;SDS011;8401;52.528;13.340;2023-05-07T11:03:14;6.60;;;2.92;;
16577;SDS011;8401;52.528;13.340;2023-05-07T11:05:40;6.22;;;2.72;;
16577;SDS011;8401;52.528;13.340;2023-05-07T11:08:07;3.70;;;2.20;;
16577;SDS011;8401;52.528;13.340;2023-05-07T11:10:49;4.30;;;2.40;;
16577;SDS011;8401;52.528;13.340;2023-05-07T11:13:16;3.42;;;1.67;;
16577;SDS011;8401;52.528;13.340;2023-05-07T11:15:43;2.17;;;1.98;;
16577;SDS011;8401;52.528;13.340;2023-05-07T11:18:11;3.47;;;2.28;;
16577;SDS011;8401;52.528;13.340;2023-05-07T11:20:51;6.18;;;2.10;;
16577;SDS011;8401;52.528;13.340;2023-05-07T11:26:06;4.15;;;2.55;;
16577;SDS011;8401;52.528;13.340;2023-05-07T11:28:40;1.60;;;1.50;;
16577;SDS011;8401;52.528;13.340;2023-05-07T11:31:07;1.70;;;1.60;;
16577;SDS011;8401;52.528;13.340;2023-05-07T11:33:33;2.13;;;1.30;;
16577;SDS011;8401;52.528;13.340;2023-05-07T11:36:00;2.53;;;1.90;;
16577;SDS011;8401;52.528;13.340;2023-05-07T11:38:28;2.28;;;1.90;;
16577;SDS011;8401;52.528;13.340;2023-05-07T11:41:01;2.75;;;2.08;;
16577;SDS011;8401;52.528;13.340;2023-05-07T11:43:27;2.80;;;2.10;;
16577;SDS011;8401;52.528;13.340;2023-05-07T11:45:53;2.63;;;2.00;;
16577;SDS011;8401;52.528;13.340;2023-05-07T11:48:19;3.20;;;2.20;;
16577;SDS011;8401;52.528;13.340;2023-05-07T11:50:53;3.53;;;1.85;;
16577;SDS011;8401;52.528;13.340;2023-05-07T11:53:25;3.60;;;1.77;;
16577;SDS011;8401;52.528;13.340;2023-05-07T11:55:52;2.75;;;1.90;;
16577;SDS011;8401;52.528;13.340;2023-05-07T11:58:21;1.55;;;1.45;;
16577;SDS011;8401;52.528;13.340;2023-05-07T12:00:53;2.13;;;1.70;;
16577;SDS011;8401;52.528;13.340;2023-05-07T12:03:19;2.47;;;1.70;;
16577;SDS011;8401;52.528;13.340;2023-05-07T12:05:46;2.17;;;1.40;;
16577;SDS011;8401;52.528;13.340;2023-05-07T12:08:16;3.22;;;1.67;;
16577;SDS011;8401;52.528;13.340;2023-05-07T12:10:49;2.15;;;1.88;;
16577;SDS011;8401;52.528;13.340;2023-05-07T12:15:42;4.17;;;1.90;;
16577;SDS011;8401;52.528;13.340;2023-05-07T12:18:08;1.73;;;1.50;;
16577;SDS011;8401;52.528;13.340;2023-05-07T12:20:36;2.37;;;2.00;;
16577;SDS011;8401;52.528;13.340;2023-05-07T12:23:02;1.70;;;1.60;;
16577;SDS011;8401;52.528;13.340;2023-05-07T12:25:31;3.47;;;1.80;;
16577;SDS011;8401;52.528;13.340;2023-05-07T12:28:00;2.73;;;1.80;;
16577;SDS011;8401;52.528;13.340;2023-05-07T12:30:26;2.90;;;1.93;;
16577;SDS011;8401;52.528;13.340;2023-05-07T12:32:55;2.63;;;1.83;;
16577;SDS011;8401;52.528;13.340;2023-05-07T12:35:30;1.90;;;1.63;;
16577;SDS011;8401;52.528;13.340;2023-05-07T12:37:56;2.88;;;1.92;;
16577;SDS011;8401;52.528;13.340;2023-05-07T12:40:24;3.03;;;1.55;;
16577;SDS011;8401;52.528;13.340;2023-05-07T12:43:00;2.78;;;1.95;;
16577;SDS011;8401;52.528;13.340;2023-05-07T12:45:26;4.03;;;1.80;;
16577;SDS011;8401;52.528;13.340;2023-05-07T12:47:51;1.87;;;1.50;;
16577;SDS011;8401;52.528;13.340;2023-05-07T12:50:17;3.80;;;1.97;;
16577;SDS011;8401;52.528;13.340;2023-05-07T12:52:43;2.23;;;1.23;;
16577;SDS011;8401;52.528;13.340;2023-05-07T12:55:12;3.67;;;2.17;;
16577;SDS011;8401;52.528;13.340;2023-05-07T12:57:42;3.67;;;1.80;;
16577;SDS011;8401;52.528;13.340;2023-05-07T13:00:10;2.43;;;1.77;;
16577;SDS011;8401;52.528;13.340;2023-05-07T13:02:37;4.70;;;1.80;;
16577;SDS011;8401;52.528;13.340;2023-05-07T13:05:04;2.67;;;2.13;;
16577;SDS011;8401;52.528;13.340;2023-05-07T13:07:30;8.73;;;4.90;;
16577;SDS011;8401;52.528;13.340;2023-05-07T13:09:55;7.03;;;4.40;;
16577;SDS011;8401;52.528;13.340;2023-05-07T13:12:21;4.73;;;3.20;;
16577;SDS011;8401;52.528;13.340;2023-05-07T13:14:47;3.07;;;2.33;;
16577;SDS011;8401;52.528;13.340;2023-05-07T13:17:12;4.83;;;3.10;;
16577;SDS011;8401;52.528;13.340;2023-05-07T13:19:38;3.80;;;2.40;;
16577;SDS011;8401;52.528;13.340;2023-05-07T13:22:04;3.63;;;2.20;;
16577;SDS011;8401;52.528;13.340;2023-05-07T13:24:30;2.83;;;2.03;;
16577;SDS011;8401;52.528;13.340;2023-05-07T13:26:56;2.53;;;1.43;;
16577;SDS011;8401;52.528;13.340;2023-05-07T13:29:21;1.53;;;1.40;;
16577;SDS011;8401;52.528;13.340;2023-05-07T13:31:53;2.63;;;1.80;;
16577;SDS011;8401;52.528;13.340;2023-05-07T13:34:19;1.93;;;1.47;;
16577;SDS011;8401;52.528;13.340;2023-05-07T13:36:45;3.53;;;2.00;;
16577;SDS011;8401;52.528;13.340;2023-05-07T13:39:11;3.03;;;2.00;;
16577;SDS011;8401;52.528;13.340;2023-05-07T13:41:36;3.17;;;1.60;;
16577;SDS011;8401;52.528;13.340;2023-05-07T13:44:02;3.77;;;1.50;;
16577;SDS011;8401;52.528;13.340;2023-05-07T13:46:28;3.80;;;1.93;;
16577;SDS011;8401;52.528;13.340;2023-05-07T13:48:54;2.53;;;1.87;;
16577;SDS011;8401;52.528;13.340;2023-05-07T13:51:20;3.07;;;2.50;;
16577;SDS011;8401;52.528;13.340;2023-05-07T13:53:46;2.20;;;1.60;;
16577;SDS011;8401;52.528;13.340;2023-05-07T13:56:12;2.73;;;2.10;;
16577;SDS011;8401;52.528;13.340;2023-05-07T13:58:39;2.97;;;1.83;;
16577;SDS011;8401;52.528;13.340;2023-05-07T14:01:05;1.50;;;1.40;;
16577;SDS011;8401;52.528;13.340;2023-05-07T14:03:30;3.30;;;1.43;;
16577;SDS011;8401;52.528;13.340;2023-05-07T14:06:00;2.27;;;1.80;;
16577;SDS011;8401;52.528;13.340;2023-05-07T14:08:26;2.13;;;1.87;;
16577;SDS011;8401;52.528;13.340;2023-05-07T14:10:52;2.00;;;1.77;;
16577;SDS011;8401;52.528;13.340;2023-05-07T14:13:18;1.63;;;1.40;;
16577;SDS011;8401;52.528;13.340;2023-05-07T14:15:44;2.77;;;1.53;;
16577;SDS011;8401;52.528;13.340;2023-05-07T14:18:12;3.23;;;1.60;;
16577;SDS011;8401;52.528;13.340;2023-05-07T14:20:37;4.10;;;2.00;;
16577;SDS011;8401;52.528;13.340;2023-05-07T14:23:03;2.57;;;1.70;;
16577;SDS011;8401;52.528;13.340;2023-05-07T14:25:29;1.67;;;1.33;;
16577;SDS011;8401;52.528;13.340;2023-05-07T14:27:55;2.40;;;1.60;;
16577;SDS011;8401;52.528;13.340;2023-05-07T14:30:21;2.17;;;1.50;;
16577;SDS011;8401;52.528;13.340;2023-05-07T14:32:49;1.80;;;1.60;;
16577;SDS011;8401;52.528;13.340;2023-05-07T14:35:15;2.87;;;1.90;;
16577;SDS011;8401;52.528;13.340;2023-05-07T14:37:41;1.70;;;1.60;;
16577;SDS011;8401;52.528;13.340;2023-05-07T14:40:07;1.97;;;1.80;;
16577;SDS011;8401;52.528;13.340;2023-05-07T14:42:33;2.53;;;1.97;;
16577;SDS011;8401;52.528;13.340;2023-05-07T14:44:59;3.90;;;2.70;;
16577;SDS011;8401;52.528;13.340;2023-05-07T14:47:25;1.87;;;1.40;;
16577;SDS011;8401;52.528;13.340;2023-05-07T14:49:50;1.80;;;1.60;;
16577;SDS011;8401;52.528;13.340;2023-05-07T14:52:16;1.70;;;1.60;;
16577;SDS011;8401;52.528;13.340;2023-05-07T14:54:42;1.50;;;1.40;;